sensor_id;sensor_type;location;lat;lon;timestamp;P1;durP1;ratioP1;P2;durP2;ratioP2
43994;SDS011;51687;52.160;5.298;2022-08-05T00:01:25;3.83;;;1.35;;
43994;SDS011;51687;52.160;5.298;2022-08-05T00:03:53;7.57;;;1.80;;
43994;SDS011;51687;52.160;5.298;2022-08-05T00:06:22;4.22;;;1.30;;
43994;SDS011;51687;52.160;5.298;2022-08-05T00:08:58;4.28;;;1.25;;
43994;SDS011;51687;52.160;5.298;2022-08-05T00:11:26;7.03;;;1.65;;
43994;SDS011;51687;52.160;5.298;2022-08-05T00:14:00;4.20;;;1.33;;
43994;SDS011;51687;52.160;5.298;2022-08-05T00:16:42;3.83;;;1.48;;
43994;SDS011;51687;52.160;5.298;2022-08-05T00:19:18;2.67;;;1.30;;
43994;SDS011;51687;52.160;5.298;2022-08-05T00:21:47;4.88;;;1.60;;
43994;SDS011;51687;52.160;5.298;2022-08-05T00:24:14;6.10;;;1.55;;
43994;SDS011;51687;52.160;5.298;2022-08-05T00:26:50;5.13;;;1.60;;
43994;SDS011;51687;52.160;5.298;2022-08-05T00:29:19;5.07;;;1.33;;
43994;SDS011;51687;52.160;5.298;2022-08-05T00:31:50;3.88;;;1.35;;
43994;SDS011;51687;52.160;5.298;2022-08-05T00:34:38;3.13;;;1.38;;
43994;SDS011;51687;52.160;5.298;2022-08-05T00:40:12;4.22;;;1.60;;
43994;SDS011;51687;52.160;5.298;2022-08-05T00:42:43;5.18;;;1.50;;
43994;SDS011;51687;52.160;5.298;2022-08-05T00:45:15;4.25;;;1.80;;
43994;SDS011;51687;52.160;5.298;2022-08-05T00:47:56;4.63;;;1.83;;
43994;SDS011;51687;52.160;5.298;2022-08-05T00:50:31;3.63;;;1.35;;
43994;SDS011;51687;52.160;5.298;2022-08-05T00:52:57;5.68;;;1.88;;
43994;SDS011;51687;52.160;5.298;2022-08-05T00:55:27;6.35;;;1.80;;
43994;SDS011;51687;52.160;5.298;2022-08-05T00:58:08;5.32;;;1.80;;
43994;SDS011;51687;52.160;5.298;2022-08-05T01:00:37;6.63;;;1.58;;
43994;SDS011;51687;52.160;5.298;2022-08-05T01:03:05;5.32;;;1.83;;
43994;SDS011;51687;52.160;5.298;2022-08-05T01:05:33;3.45;;;1.40;;
43994;SDS011;51687;52.160;5.298;2022-08-05T01:08:00;3.35;;;1.70;;
43994;SDS011;51687;52.160;5.298;2022-08-05T01:10:51;4.97;;;1.50;;
43994;SDS011;51687;52.160;5.298;2022-08-05T01:13:24;4.18;;;1.60;;
43994;SDS011;51687;52.160;5.298;2022-08-05T01:19:22;4.78;;;1.80;;
43994;SDS011;51687;52.160;5.298;2022-08-05T01:22:20;4.43;;;1.80;;
43994;SDS011;51687;52.160;5.298;2022-08-05T01:30:52;6.13;;;2.28;;
43994;SDS011;51687;52.160;5.298;2022-08-05T01:33:30;5.22;;;2.33;;
43994;SDS011;51687;52.160;5.298;2022-08-05T01:36:02;7.70;;;2.13;;
43994;SDS011;51687;52.160;5.298;2022-08-05T01:38:41;7.10;;;2.10;;
43994;SDS011;51687;52.160;5.298;2022-08-05T01:41:13;6.22;;;2.17;;
43994;SDS011;51687;52.160;5.298;2022-08-05T01:43:49;5.88;;;2.60;;
43994;SDS011;51687;52.160;5.298;2022-08-05T01:46:17;3.63;;;1.58;;
43994;SDS011;51687;52.160;5.298;2022-08-05T01:49:08;3.38;;;1.55;;
43994;SDS011;51687;52.160;5.298;2022-08-05T01:51:51;5.07;;;1.70;;
43994;SDS011;51687;52.160;5.298;2022-08-05T01:54:24;4.88;;;1.67;;
43994;SDS011;51687;52.160;5.298;2022-08-05T01:56:55;4.00;;;1.58;;
43994;SDS011;51687;52.160;5.298;2022-08-05T01:59:44;3.45;;;1.50;;
43994;SDS011;51687;52.160;5.298;2022-08-05T02:02:13;6.22;;;1.33;;
43994;SDS011;51687;52.160;5.298;2022-08-05T02:04:43;3.17;;;1.40;;
43994;SDS011;51687;52.160;5.298;2022-08-05T02:07:14;9.45;;;1.80;;
43994;SDS011;51687;52.160;5.298;2022-08-05T02:09:48;3.88;;;1.40;;
43994;SDS011;51687;52.160;5.298;2022-08-05T02:12:20;5.55;;;1.60;;
43994;SDS011;51687;52.160;5.298;2022-08-05T02:14:59;3.53;;;1.33;;
43994;SDS011;51687;52.160;5.298;2022-08-05T02:17:40;3.50;;;1.10;;
43994;SDS011;51687;52.160;5.298;2022-08-05T02:20:48;7.63;;;1.38;;
43994;SDS011;51687;52.160;5.298;2022-08-05T02:23:25;4.30;;;1.20;;
43994;SDS011;51687;52.160;5.298;2022-08-05T02:25:59;3.00;;;1.05;;
43994;SDS011;51687;52.160;5.298;2022-08-05T02:28:30;6.68;;;1.65;;
43994;SDS011;51687;52.160;5.298;2022-08-05T02:31:11;5.05;;;1.40;;
43994;SDS011;51687;52.160;5.298;2022-08-05T02:33:47;5.28;;;1.40;;
43994;SDS011;51687;52.160;5.298;2022-08-05T02:36:23;4.95;;;1.60;;
43994;SDS011;51687;52.160;5.298;2022-08-05T02:38:53;4.47;;;1.42;;
43994;SDS011;51687;52.160;5.298;2022-08-05T02:41:23;3.20;;;1.50;;
43994;SDS011;51687;52.160;5.298;2022-08-05T02:44:01;4.57;;;1.50;;
43994;SDS011;51687;52.160;5.298;2022-08-05T02:46:39;4.93;;;1.33;;
43994;SDS011;51687;52.160;5.298;2022-08-05T02:49:26;5.60;;;1.35;;
43994;SDS011;51687;52.160;5.298;2022-08-05T02:52:02;5.88;;;2.40;;
43994;SDS011;51687;52.160;5.298;2022-08-05T02:54:56;5.53;;;1.30;;
43994;SDS011;51687;52.160;5.298;2022-08-05T02:57:30;4.00;;;1.15;;
43994;SDS011;51687;52.160;5.298;2022-08-05T03:00:18;4.78;;;1.33;;
43994;SDS011;51687;52.160;5.298;2022-08-05T03:02:45;6.72;;;1.65;;
43994;SDS011;51687;52.160;5.298;2022-08-05T03:05:13;4.75;;;1.75;;
43994;SDS011;51687;52.160;5.298;2022-08-05T03:07:41;5.07;;;1.13;;
43994;SDS011;51687;52.160;5.298;2022-08-05T03:10:29;2.67;;;1.15;;
43994;SDS011;51687;52.160;5.298;2022-08-05T03:12:56;6.13;;;1.50;;
43994;SDS011;51687;52.160;5.298;2022-08-05T03:15:21;4.53;;;1.33;;
43994;SDS011;51687;52.160;5.298;2022-08-05T03:17:51;4.47;;;1.45;;
43994;SDS011;51687;52.160;5.298;2022-08-05T03:20:23;5.93;;;1.70;;
43994;SDS011;51687;52.160;5.298;2022-08-05T03:22:50;5.30;;;1.35;;
43994;SDS011;51687;52.160;5.298;2022-08-05T03:25:20;8.23;;;1.48;;
43994;SDS011;51687;52.160;5.298;2022-08-05T03:28:08;4.43;;;1.52;;
43994;SDS011;51687;52.160;5.298;2022-08-05T03:30:39;5.78;;;1.80;;
43994;SDS011;51687;52.160;5.298;2022-08-05T03:33:07;7.00;;;1.88;;
43994;SDS011;51687;52.160;5.298;2022-08-05T03:35:34;6.57;;;1.33;;
43994;SDS011;51687;52.160;5.298;2022-08-05T03:38:07;5.38;;;1.58;;
43994;SDS011;51687;52.160;5.298;2022-08-05T03:40:42;5.85;;;1.83;;
43994;SDS011;51687;52.160;5.298;2022-08-05T03:43:14;4.72;;;1.67;;
43994;SDS011;51687;52.160;5.298;2022-08-05T03:46:02;4.57;;;1.55;;
43994;SDS011;51687;52.160;5.298;2022-08-05T03:56:56;6.22;;;1.48;;
43994;SDS011;51687;52.160;5.298;2022-08-05T03:59:36;4.40;;;1.40;;
43994;SDS011;51687;52.160;5.298;2022-08-05T04:02:19;4.35;;;1.58;;
43994;SDS011;51687;52.160;5.298;2022-08-05T04:05:04;3.63;;;1.30;;
43994;SDS011;51687;52.160;5.298;2022-08-05T04:07:36;4.90;;;1.33;;
43994;SDS011;51687;52.160;5.298;2022-08-05T04:10:24;5.60;;;1.50;;
43994;SDS011;51687;52.160;5.298;2022-08-05T04:12:57;4.18;;;1.17;;
43994;SDS011;51687;52.160;5.298;2022-08-05T04:15:25;3.70;;;1.30;;
43994;SDS011;51687;52.160;5.298;2022-08-05T04:18:00;3.83;;;1.60;;
43994;SDS011;51687;52.160;5.298;2022-08-05T04:20:32;3.85;;;1.65;;
43994;SDS011;51687;52.160;5.298;2022-08-05T04:22:59;5.97;;;1.60;;
43994;SDS011;51687;52.160;5.298;2022-08-05T04:25:26;4.43;;;1.45;;
43994;SDS011;51687;52.160;5.298;2022-08-05T04:28:13;4.10;;;1.13;;
43994;SDS011;51687;52.160;5.298;2022-08-05T04:30:42;3.35;;;1.17;;
43994;SDS011;51687;52.160;5.298;2022-08-05T04:33:10;6.93;;;1.48;;
43994;SDS011;51687;52.160;5.298;2022-08-05T04:35:37;3.97;;;1.17;;
43994;SDS011;51687;52.160;5.298;2022-08-05T04:38:24;3.45;;;1.27;;
43994;SDS011;51687;52.160;5.298;2022-08-05T04:41:05;7.45;;;1.30;;
43994;SDS011;51687;52.160;5.298;2022-08-05T04:43:35;3.15;;;1.17;;
43994;SDS011;51687;52.160;5.298;2022-08-05T04:46:05;4.93;;;1.85;;
43994;SDS011;51687;52.160;5.298;2022-08-05T04:48:32;5.30;;;1.33;;
43994;SDS011;51687;52.160;5.298;2022-08-05T04:50:59;5.63;;;1.08;;
43994;SDS011;51687;52.160;5.298;2022-08-05T04:53:36;3.40;;;0.93;;
43994;SDS011;51687;52.160;5.298;2022-08-05T04:56:05;5.85;;;1.10;;
43994;SDS011;51687;52.160;5.298;2022-08-05T04:58:52;3.83;;;1.48;;
43994;SDS011;51687;52.160;5.298;2022-08-05T05:01:19;3.28;;;0.98;;
43994;SDS011;51687;52.160;5.298;2022-08-05T05:04:06;2.97;;;1.63;;
43994;SDS011;51687;52.160;5.298;2022-08-05T05:09:10;4.97;;;1.10;;
43994;SDS011;51687;52.160;5.298;2022-08-05T05:11:42;3.63;;;1.10;;
43994;SDS011;51687;52.160;5.298;2022-08-05T05:14:23;2.58;;;0.95;;
43994;SDS011;51687;52.160;5.298;2022-08-05T05:17:00;4.40;;;1.10;;
43994;SDS011;51687;52.160;5.298;2022-08-05T05:19:28;2.60;;;0.88;;
43994;SDS011;51687;52.160;5.298;2022-08-05T05:22:10;3.15;;;1.17;;
43994;SDS011;51687;52.160;5.298;2022-08-05T05:24:51;2.20;;;0.90;;
43994;SDS011;51687;52.160;5.298;2022-08-05T05:27:26;2.88;;;1.05;;
43994;SDS011;51687;52.160;5.298;2022-08-05T05:30:10;4.53;;;1.00;;
43994;SDS011;51687;52.160;5.298;2022-08-05T05:32:56;1.95;;;0.90;;
43994;SDS011;51687;52.160;5.298;2022-08-05T05:35:27;2.13;;;0.82;;
43994;SDS011;51687;52.160;5.298;2022-08-05T05:40:39;2.80;;;0.90;;
43994;SDS011;51687;52.160;5.298;2022-08-05T05:43:17;1.40;;;0.77;;
43994;SDS011;51687;52.160;5.298;2022-08-05T05:46:04;2.78;;;0.82;;
43994;SDS011;51687;52.160;5.298;2022-08-05T05:48:40;2.22;;;0.80;;
43994;SDS011;51687;52.160;5.298;2022-08-05T05:51:10;4.22;;;1.42;;
43994;SDS011;51687;52.160;5.298;2022-08-05T05:53:41;6.70;;;1.00;;
43994;SDS011;51687;52.160;5.298;2022-08-05T05:56:23;3.60;;;0.90;;
43994;SDS011;51687;52.160;5.298;2022-08-05T05:59:00;2.58;;;1.05;;
43994;SDS011;51687;52.160;5.298;2022-08-05T06:01:31;2.58;;;1.08;;
43994;SDS011;51687;52.160;5.298;2022-08-05T06:04:05;3.42;;;1.08;;
43994;SDS011;51687;52.160;5.298;2022-08-05T06:06:33;3.40;;;1.05;;
43994;SDS011;51687;52.160;5.298;2022-08-05T06:09:00;3.05;;;0.90;;
43994;SDS011;51687;52.160;5.298;2022-08-05T06:11:33;2.53;;;0.77;;
43994;SDS011;51687;52.160;5.298;2022-08-05T06:14:04;3.03;;;1.00;;
43994;SDS011;51687;52.160;5.298;2022-08-05T06:16:31;2.83;;;0.90;;
43994;SDS011;51687;52.160;5.298;2022-08-05T06:19:02;4.82;;;0.90;;
43994;SDS011;51687;52.160;5.298;2022-08-05T06:21:32;1.98;;;1.02;;
43994;SDS011;51687;52.160;5.298;2022-08-05T06:24:06;3.80;;;0.90;;
43994;SDS011;51687;52.160;5.298;2022-08-05T06:26:37;3.05;;;0.82;;
43994;SDS011;51687;52.160;5.298;2022-08-05T06:29:17;2.33;;;0.98;;
43994;SDS011;51687;52.160;5.298;2022-08-05T06:32:04;2.47;;;1.08;;
43994;SDS011;51687;52.160;5.298;2022-08-05T06:34:46;2.47;;;1.10;;
43994;SDS011;51687;52.160;5.298;2022-08-05T06:37:18;2.85;;;0.80;;
43994;SDS011;51687;52.160;5.298;2022-08-05T06:40:05;1.88;;;0.80;;
43994;SDS011;51687;52.160;5.298;2022-08-05T06:42:33;11.13;;;1.05;;
43994;SDS011;51687;52.160;5.298;2022-08-05T06:44:59;2.83;;;1.02;;
43994;SDS011;51687;52.160;5.298;2022-08-05T06:47:33;1.05;;;0.57;;
43994;SDS011;51687;52.160;5.298;2022-08-05T06:50:20;1.40;;;0.80;;
43994;SDS011;51687;52.160;5.298;2022-08-05T06:52:47;3.45;;;1.10;;
43994;SDS011;51687;52.160;5.298;2022-08-05T06:55:33;4.20;;;0.80;;
43994;SDS011;51687;52.160;5.298;2022-08-05T06:58:01;2.50;;;0.43;;
43994;SDS011;51687;52.160;5.298;2022-08-05T07:00:49;4.77;;;0.67;;
43994;SDS011;51687;52.160;5.298;2022-08-05T07:03:16;1.83;;;0.68;;
43994;SDS011;51687;52.160;5.298;2022-08-05T07:05:43;2.45;;;0.65;;
43994;SDS011;51687;52.160;5.298;2022-08-05T07:10:38;0.90;;;0.40;;
43994;SDS011;51687;52.160;5.298;2022-08-05T07:13:20;2.15;;;0.43;;
43994;SDS011;51687;52.160;5.298;2022-08-05T07:16:25;1.17;;;0.50;;
43994;SDS011;51687;52.160;5.298;2022-08-05T07:19:32;1.60;;;0.40;;
43994;SDS011;51687;52.160;5.298;2022-08-05T07:22:19;1.38;;;0.40;;
43994;SDS011;51687;52.160;5.298;2022-08-05T07:25:01;1.95;;;0.40;;
43994;SDS011;51687;52.160;5.298;2022-08-05T07:27:49;0.65;;;0.20;;
43994;SDS011;51687;52.160;5.298;2022-08-05T07:30:28;3.30;;;0.50;;
43994;SDS011;51687;52.160;5.298;2022-08-05T07:33:04;0.43;;;0.20;;
43994;SDS011;51687;52.160;5.298;2022-08-05T07:35:36;2.53;;;0.57;;
43994;SDS011;51687;52.160;5.298;2022-08-05T07:38:24;0.85;;;0.30;;
43994;SDS011;51687;52.160;5.298;2022-08-05T07:41:04;0.98;;;0.40;;
43994;SDS011;51687;52.160;5.298;2022-08-05T07:43:52;1.25;;;0.45;;
43994;SDS011;51687;52.160;5.298;2022-08-05T07:46:22;0.75;;;0.30;;
43994;SDS011;51687;52.160;5.298;2022-08-05T07:48:52;1.17;;;0.30;;
43994;SDS011;51687;52.160;5.298;2022-08-05T07:54:02;2.17;;;0.25;;
43994;SDS011;51687;52.160;5.298;2022-08-05T07:56:30;1.85;;;0.45;;
43994;SDS011;51687;52.160;5.298;2022-08-05T07:59:17;1.07;;;0.50;;
43994;SDS011;51687;52.160;5.298;2022-08-05T08:01:48;3.17;;;0.30;;
43994;SDS011;51687;52.160;5.298;2022-08-05T08:04:22;1.83;;;0.40;;
43994;SDS011;51687;52.160;5.298;2022-08-05T08:07:03;1.23;;;0.30;;
43994;SDS011;51687;52.160;5.298;2022-08-05T08:09:32;2.25;;;0.38;;
43994;SDS011;51687;52.160;5.298;2022-08-05T08:11:59;1.35;;;0.50;;
43994;SDS011;51687;52.160;5.298;2022-08-05T08:14:40;1.48;;;0.40;;
43994;SDS011;51687;52.160;5.298;2022-08-05T08:17:11;0.63;;;0.20;;
43994;SDS011;51687;52.160;5.298;2022-08-05T08:19:42;1.58;;;0.40;;
43994;SDS011;51687;52.160;5.298;2022-08-05T08:22:30;0.93;;;0.40;;
43994;SDS011;51687;52.160;5.298;2022-08-05T08:24:57;1.45;;;0.25;;
43994;SDS011;51687;52.160;5.298;2022-08-05T08:27:29;0.95;;;0.40;;
43994;SDS011;51687;52.160;5.298;2022-08-05T08:30:07;0.80;;;0.30;;
43994;SDS011;51687;52.160;5.298;2022-08-05T08:32:55;1.02;;;0.55;;
43994;SDS011;51687;52.160;5.298;2022-08-05T08:35:22;0.47;;;0.20;;
43994;SDS011;51687;52.160;5.298;2022-08-05T08:37:52;0.40;;;0.30;;
43994;SDS011;51687;52.160;5.298;2022-08-05T08:40:21;2.08;;;0.40;;
43994;SDS011;51687;52.160;5.298;2022-08-05T08:42:52;4.22;;;0.30;;
43994;SDS011;51687;52.160;5.298;2022-08-05T08:45:21;4.55;;;0.30;;
43994;SDS011;51687;52.160;5.298;2022-08-05T08:47:54;0.80;;;0.30;;
43994;SDS011;51687;52.160;5.298;2022-08-05T08:53:34;2.33;;;0.70;;
43994;SDS011;51687;52.160;5.298;2022-08-05T08:56:03;3.15;;;0.30;;
43994;SDS011;51687;52.160;5.298;2022-08-05T08:58:31;1.60;;;0.70;;
43994;SDS011;51687;52.160;5.298;2022-08-05T09:01:09;0.82;;;0.22;;
43994;SDS011;51687;52.160;5.298;2022-08-05T09:03:41;1.17;;;0.40;;
43994;SDS011;51687;52.160;5.298;2022-08-05T09:06:23;1.90;;;0.25;;
43994;SDS011;51687;52.160;5.298;2022-08-05T09:08:56;1.17;;;0.30;;
43994;SDS011;51687;52.160;5.298;2022-08-05T09:11:26;1.88;;;0.38;;
43994;SDS011;51687;52.160;5.298;2022-08-05T09:14:13;0.90;;;0.50;;
43994;SDS011;51687;52.160;5.298;2022-08-05T09:17:00;1.70;;;0.45;;
43994;SDS011;51687;52.160;5.298;2022-08-05T09:19:33;1.15;;;0.30;;
43994;SDS011;51687;52.160;5.298;2022-08-05T09:22:02;1.90;;;0.30;;
43994;SDS011;51687;52.160;5.298;2022-08-05T09:24:55;2.33;;;0.37;;
43994;SDS011;51687;52.160;5.298;2022-08-05T09:27:31;2.85;;;0.30;;
43994;SDS011;51687;52.160;5.298;2022-08-05T09:30:18;2.17;;;0.35;;
43994;SDS011;51687;52.160;5.298;2022-08-05T09:32:48;1.00;;;0.40;;
43994;SDS011;51687;52.160;5.298;2022-08-05T09:35:17;0.82;;;0.28;;
43994;SDS011;51687;52.160;5.298;2022-08-05T09:37:53;0.95;;;0.40;;
43994;SDS011;51687;52.160;5.298;2022-08-05T09:40:41;2.45;;;0.38;;
43994;SDS011;51687;52.160;5.298;2022-08-05T09:43:34;0.80;;;0.30;;
43994;SDS011;51687;52.160;5.298;2022-08-05T09:46:07;1.90;;;0.40;;
43994;SDS011;51687;52.160;5.298;2022-08-05T09:48:54;2.85;;;0.30;;
43994;SDS011;51687;52.160;5.298;2022-08-05T09:51:34;3.90;;;0.57;;
43994;SDS011;51687;52.160;5.298;2022-08-05T09:54:05;2.53;;;0.30;;
43994;SDS011;51687;52.160;5.298;2022-08-05T09:56:35;2.83;;;0.40;;
43994;SDS011;51687;52.160;5.298;2022-08-05T09:59:05;3.72;;;0.40;;
43994;SDS011;51687;52.160;5.298;2022-08-05T10:01:34;1.25;;;0.20;;
43994;SDS011;51687;52.160;5.298;2022-08-05T10:04:11;3.13;;;0.40;;
43994;SDS011;51687;52.160;5.298;2022-08-05T10:06:52;1.50;;;0.52;;
43994;SDS011;51687;52.160;5.298;2022-08-05T10:09:25;0.63;;;0.20;;
43994;SDS011;51687;52.160;5.298;2022-08-05T10:11:54;0.98;;;0.30;;
43994;SDS011;51687;52.160;5.298;2022-08-05T10:15:03;0.70;;;0.25;;
43994;SDS011;51687;52.160;5.298;2022-08-05T10:20:32;0.93;;;0.30;;
43994;SDS011;51687;52.160;5.298;2022-08-05T10:23:01;0.93;;;0.32;;
43994;SDS011;51687;52.160;5.298;2022-08-05T10:25:28;0.57;;;0.20;;
43994;SDS011;51687;52.160;5.298;2022-08-05T10:27:56;1.50;;;0.30;;
43994;SDS011;51687;52.160;5.298;2022-08-05T10:30:43;0.50;;;0.20;;
43994;SDS011;51687;52.160;5.298;2022-08-05T10:33:30;1.50;;;0.35;;
43994;SDS011;51687;52.160;5.298;2022-08-05T10:36:00;1.20;;;0.28;;
43994;SDS011;51687;52.160;5.298;2022-08-05T10:38:29;0.60;;;0.30;;
43994;SDS011;51687;52.160;5.298;2022-08-05T10:41:10;0.43;;;0.13;;
43994;SDS011;51687;52.160;5.298;2022-08-05T10:43:56;1.20;;;0.30;;
43994;SDS011;51687;52.160;5.298;2022-08-05T10:46:46;1.02;;;0.20;;
43994;SDS011;51687;52.160;5.298;2022-08-05T10:49:20;1.48;;;0.30;;
43994;SDS011;51687;52.160;5.298;2022-08-05T10:51:54;1.58;;;0.30;;
43994;SDS011;51687;52.160;5.298;2022-08-05T10:54:47;0.65;;;0.10;;
43994;SDS011;51687;52.160;5.298;2022-08-05T10:57:25;2.53;;;0.30;;
43994;SDS011;51687;52.160;5.298;2022-08-05T11:00:09;1.40;;;0.30;;
43994;SDS011;51687;52.160;5.298;2022-08-05T11:03:19;1.08;;;0.30;;
43994;SDS011;51687;52.160;5.298;2022-08-05T11:06:01;0.82;;;0.20;;
43994;SDS011;51687;52.160;5.298;2022-08-05T11:08:30;3.58;;;0.20;;
43994;SDS011;51687;52.160;5.298;2022-08-05T11:14:28;1.15;;;0.30;;
43994;SDS011;51687;52.160;5.298;2022-08-05T11:23:00;1.02;;;0.30;;
43994;SDS011;51687;52.160;5.298;2022-08-05T11:26:19;0.95;;;0.28;;
43994;SDS011;51687;52.160;5.298;2022-08-05T11:31:38;1.65;;;0.30;;
43994;SDS011;51687;52.160;5.298;2022-08-05T11:34:38;1.45;;;0.20;;
43994;SDS011;51687;52.160;5.298;2022-08-05T11:43:42;2.95;;;0.40;;
43994;SDS011;51687;52.160;5.298;2022-08-05T11:46:34;2.40;;;0.30;;
43994;SDS011;51687;52.160;5.298;2022-08-05T11:49:03;1.60;;;0.38;;
43994;SDS011;51687;52.160;5.298;2022-08-05T11:51:35;1.42;;;0.30;;
43994;SDS011;51687;52.160;5.298;2022-08-05T11:54:22;1.08;;;0.30;;
43994;SDS011;51687;52.160;5.298;2022-08-05T11:57:00;2.15;;;0.40;;
43994;SDS011;51687;52.160;5.298;2022-08-05T11:59:48;0.90;;;0.30;;
43994;SDS011;51687;52.160;5.298;2022-08-05T12:02:16;1.92;;;0.28;;
43994;SDS011;51687;52.160;5.298;2022-08-05T12:04:56;5.47;;;0.32;;
43994;SDS011;51687;52.160;5.298;2022-08-05T12:07:25;2.25;;;0.30;;
43994;SDS011;51687;52.160;5.298;2022-08-05T12:10:18;4.10;;;0.63;;
43994;SDS011;51687;52.160;5.298;2022-08-05T12:12:46;2.45;;;0.35;;
43994;SDS011;51687;52.160;5.298;2022-08-05T12:15:25;2.13;;;0.50;;
43994;SDS011;51687;52.160;5.298;2022-08-05T12:18:03;1.08;;;0.30;;
43994;SDS011;51687;52.160;5.298;2022-08-05T12:20:37;1.38;;;0.30;;
43994;SDS011;51687;52.160;5.298;2022-08-05T12:23:11;1.80;;;0.40;;
43994;SDS011;51687;52.160;5.298;2022-08-05T12:25:48;2.88;;;0.57;;
43994;SDS011;51687;52.160;5.298;2022-08-05T12:28:28;2.20;;;0.70;;
43994;SDS011;51687;52.160;5.298;2022-08-05T12:30:56;1.58;;;0.50;;
43994;SDS011;51687;52.160;5.298;2022-08-05T12:33:27;3.20;;;0.50;;
43994;SDS011;51687;52.160;5.298;2022-08-05T12:36:02;1.30;;;0.40;;
43994;SDS011;51687;52.160;5.298;2022-08-05T12:38:37;1.73;;;0.40;;
43994;SDS011;51687;52.160;5.298;2022-08-05T12:41:07;2.05;;;0.50;;
43994;SDS011;51687;52.160;5.298;2022-08-05T12:43:56;1.40;;;0.40;;
43994;SDS011;51687;52.160;5.298;2022-08-05T12:46:30;2.08;;;0.38;;
43994;SDS011;51687;52.160;5.298;2022-08-05T12:49:11;3.00;;;0.50;;
43994;SDS011;51687;52.160;5.298;2022-08-05T12:51:43;2.13;;;0.40;;
43994;SDS011;51687;52.160;5.298;2022-08-05T12:54:45;2.95;;;0.30;;
43994;SDS011;51687;52.160;5.298;2022-08-05T12:57:15;1.95;;;0.50;;
43994;SDS011;51687;52.160;5.298;2022-08-05T12:59:52;2.17;;;0.60;;
43994;SDS011;51687;52.160;5.298;2022-08-05T13:02:40;2.20;;;0.50;;
43994;SDS011;51687;52.160;5.298;2022-08-05T13:05:12;1.98;;;0.50;;
43994;SDS011;51687;52.160;5.298;2022-08-05T13:07:39;2.63;;;0.70;;
43994;SDS011;51687;52.160;5.298;2022-08-05T13:10:26;2.05;;;0.60;;
43994;SDS011;51687;52.160;5.298;2022-08-05T13:12:56;1.80;;;0.60;;
43994;SDS011;51687;52.160;5.298;2022-08-05T13:15:30;1.67;;;0.80;;
43994;SDS011;51687;52.160;5.298;2022-08-05T13:18:16;1.52;;;0.50;;
43994;SDS011;51687;52.160;5.298;2022-08-05T13:20:45;2.60;;;0.55;;
43994;SDS011;51687;52.160;5.298;2022-08-05T13:23:12;1.95;;;0.63;;
43994;SDS011;51687;52.160;5.298;2022-08-05T13:25:41;1.42;;;0.50;;
43994;SDS011;51687;52.160;5.298;2022-08-05T13:28:24;1.13;;;0.60;;
43994;SDS011;51687;52.160;5.298;2022-08-05T13:30:51;1.73;;;0.70;;
43994;SDS011;51687;52.160;5.298;2022-08-05T13:33:18;0.90;;;0.40;;
43994;SDS011;51687;52.160;5.298;2022-08-05T13:36:06;2.22;;;0.63;;
43994;SDS011;51687;52.160;5.298;2022-08-05T13:38:34;2.28;;;0.40;;
43994;SDS011;51687;52.160;5.298;2022-08-05T13:41:07;1.75;;;0.40;;
43994;SDS011;51687;52.160;5.298;2022-08-05T13:43:37;2.90;;;0.47;;
43994;SDS011;51687;52.160;5.298;2022-08-05T13:46:11;1.42;;;0.30;;
43994;SDS011;51687;52.160;5.298;2022-08-05T13:48:38;2.63;;;0.30;;
43994;SDS011;51687;52.160;5.298;2022-08-05T13:51:28;1.00;;;0.20;;
43994;SDS011;51687;52.160;5.298;2022-08-05T13:54:08;1.30;;;0.30;;
43994;SDS011;51687;52.160;5.298;2022-08-05T13:56:38;0.43;;;0.28;;
43994;SDS011;51687;52.160;5.298;2022-08-05T13:59:15;1.77;;;0.30;;
43994;SDS011;51687;52.160;5.298;2022-08-05T14:01:46;3.90;;;0.32;;
43994;SDS011;51687;52.160;5.298;2022-08-05T14:04:28;3.47;;;0.70;;
43994;SDS011;51687;52.160;5.298;2022-08-05T14:10:30;1.85;;;0.20;;
43994;SDS011;51687;52.160;5.298;2022-08-05T14:12:58;4.22;;;0.20;;
43994;SDS011;51687;52.160;5.298;2022-08-05T14:15:25;1.77;;;0.60;;
43994;SDS011;51687;52.160;5.298;2022-08-05T14:18:13;2.45;;;0.30;;
43994;SDS011;51687;52.160;5.298;2022-08-05T14:20:48;1.23;;;0.17;;
43994;SDS011;51687;52.160;5.298;2022-08-05T14:23:19;0.82;;;0.20;;
43994;SDS011;51687;52.160;5.298;2022-08-05T14:25:52;1.75;;;0.28;;
43994;SDS011;51687;52.160;5.298;2022-08-05T14:28:24;1.20;;;0.30;;
43994;SDS011;51687;52.160;5.298;2022-08-05T14:30:53;1.98;;;0.25;;
43994;SDS011;51687;52.160;5.298;2022-08-05T14:33:22;0.82;;;0.35;;
43994;SDS011;51687;52.160;5.298;2022-08-05T14:35:49;0.63;;;0.10;;
43994;SDS011;51687;52.160;5.298;2022-08-05T14:38:22;3.13;;;0.30;;
43994;SDS011;51687;52.160;5.298;2022-08-05T14:40:59;1.40;;;0.35;;
43994;SDS011;51687;52.160;5.298;2022-08-05T14:43:33;1.85;;;0.30;;
43994;SDS011;51687;52.160;5.298;2022-08-05T14:46:21;2.17;;;0.40;;
43994;SDS011;51687;52.160;5.298;2022-08-05T14:48:54;1.40;;;0.35;;
43994;SDS011;51687;52.160;5.298;2022-08-05T14:51:24;1.98;;;0.50;;
43994;SDS011;51687;52.160;5.298;2022-08-05T14:53:56;4.32;;;0.55;;
43994;SDS011;51687;52.160;5.298;2022-08-05T14:56:43;1.50;;;0.40;;
43994;SDS011;51687;52.160;5.298;2022-08-05T14:59:12;3.55;;;0.75;;
43994;SDS011;51687;52.160;5.298;2022-08-05T15:01:40;2.30;;;0.50;;
43994;SDS011;51687;52.160;5.298;2022-08-05T15:04:15;3.17;;;0.50;;
43994;SDS011;51687;52.160;5.298;2022-08-05T15:06:46;2.10;;;0.45;;
43994;SDS011;51687;52.160;5.298;2022-08-05T15:09:19;2.95;;;0.63;;
43994;SDS011;51687;52.160;5.298;2022-08-05T15:12:07;1.48;;;0.40;;
43994;SDS011;51687;52.160;5.298;2022-08-05T15:14:43;4.57;;;0.63;;
43994;SDS011;51687;52.160;5.298;2022-08-05T15:17:18;2.47;;;0.40;;
43994;SDS011;51687;52.160;5.298;2022-08-05T15:20:06;5.20;;;0.77;;
43994;SDS011;51687;52.160;5.298;2022-08-05T15:22:45;1.83;;;0.45;;
43994;SDS011;51687;52.160;5.298;2022-08-05T15:25:19;1.75;;;0.40;;
43994;SDS011;51687;52.160;5.298;2022-08-05T15:28:08;2.28;;;0.47;;
43994;SDS011;51687;52.160;5.298;2022-08-05T15:30:40;2.28;;;0.50;;
43994;SDS011;51687;52.160;5.298;2022-08-05T15:33:12;1.75;;;0.38;;
43994;SDS011;51687;52.160;5.298;2022-08-05T15:35:59;2.28;;;0.60;;
43994;SDS011;51687;52.160;5.298;2022-08-05T15:38:29;3.63;;;0.90;;
43994;SDS011;51687;52.160;5.298;2022-08-05T15:41:01;1.00;;;0.30;;
43994;SDS011;51687;52.160;5.298;2022-08-05T15:43:48;1.65;;;0.50;;
43994;SDS011;51687;52.160;5.298;2022-08-05T15:46:15;1.85;;;0.50;;
43994;SDS011;51687;52.160;5.298;2022-08-05T15:48:44;1.85;;;0.40;;
43994;SDS011;51687;52.160;5.298;2022-08-05T15:51:27;1.35;;;0.43;;
43994;SDS011;51687;52.160;5.298;2022-08-05T15:54:14;0.82;;;0.30;;
43994;SDS011;51687;52.160;5.298;2022-08-05T15:56:41;1.50;;;0.45;;
43994;SDS011;51687;52.160;5.298;2022-08-05T15:59:09;1.33;;;0.40;;
43994;SDS011;51687;52.160;5.298;2022-08-05T16:01:47;2.25;;;0.50;;
43994;SDS011;51687;52.160;5.298;2022-08-05T16:04:19;4.35;;;0.40;;
43994;SDS011;51687;52.160;5.298;2022-08-05T16:06:51;1.73;;;0.30;;
43994;SDS011;51687;52.160;5.298;2022-08-05T16:09:22;2.33;;;0.40;;
43994;SDS011;51687;52.160;5.298;2022-08-05T16:11:50;1.98;;;0.30;;
43994;SDS011;51687;52.160;5.298;2022-08-05T16:14:19;1.88;;;0.40;;
43994;SDS011;51687;52.160;5.298;2022-08-05T16:19:16;1.80;;;0.43;;
43994;SDS011;51687;52.160;5.298;2022-08-05T16:22:04;1.63;;;0.30;;
43994;SDS011;51687;52.160;5.298;2022-08-05T16:24:35;1.17;;;0.57;;
43994;SDS011;51687;52.160;5.298;2022-08-05T16:27:06;1.00;;;0.52;;
43994;SDS011;51687;52.160;5.298;2022-08-05T16:29:34;1.70;;;0.40;;
43994;SDS011;51687;52.160;5.298;2022-08-05T16:32:03;1.92;;;0.60;;
43994;SDS011;51687;52.160;5.298;2022-08-05T16:34:31;4.55;;;0.70;;
43994;SDS011;51687;52.160;5.298;2022-08-05T16:36:58;4.80;;;0.50;;
43994;SDS011;51687;52.160;5.298;2022-08-05T16:39:25;4.20;;;0.82;;
43994;SDS011;51687;52.160;5.298;2022-08-05T16:42:12;6.18;;;0.70;;